createdAt,value
2022-08-17T00:02:26.614Z,99.41
2022-08-17T00:04:59.206Z,99.20
2022-08-17T00:07:31.045Z,99.21
2022-08-17T00:10:03.688Z,99.23
2022-08-17T00:12:44.675Z,99.30
2022-08-17T00:15:17.217Z,99.14
2022-08-17T00:17:51.787Z,99.17
2022-08-17T00:20:32.088Z,99.16
2022-08-17T00:23:10.048Z,99.15
2022-08-17T00:25:43.435Z,99.34
2022-08-17T00:28:16.291Z,99.32
2022-08-17T00:30:53.125Z,99.42
2022-08-17T00:33:32.342Z,99.32
2022-08-17T00:36:06.113Z,99.29
2022-08-17T00:38:39.079Z,99.43
2022-08-17T00:41:15.260Z,99.28
2022-08-17T00:43:52.313Z,99.33
2022-08-17T00:46:26.398Z,99.31
2022-08-17T00:49:01.401Z,99.14
2022-08-17T00:51:38.602Z,99.09
2022-08-17T00:54:15.047Z,99.01
2022-08-17T00:56:51.754Z,98.98
2022-08-17T00:59:30.964Z,99.00
2022-08-17T01:02:06.655Z,99.06
2022-08-17T01:04:39.858Z,98.95
2022-08-17T01:07:12.303Z,99.06
2022-08-17T01:09:46.146Z,98.82
2022-08-17T01:12:18.225Z,98.83
2022-08-17T01:14:50.581Z,99.05
2022-08-17T01:17:22.462Z,98.89
2022-08-17T01:19:54.317Z,98.97
2022-08-17T01:22:26.894Z,98.90
2022-08-17T01:25:03.658Z,98.77
2022-08-17T01:27:37.094Z,98.75
2022-08-17T01:30:58.620Z,98.68
2022-08-17T01:33:04.873Z,98.69
2022-08-17T01:35:36.747Z,98.72
2022-08-17T01:38:09.534Z,98.76
2022-08-17T01:40:46.508Z,98.96
2022-08-17T01:43:24.204Z,99.07
2022-08-17T01:46:02.817Z,98.97
2022-08-17T01:48:40.673Z,99.03
2022-08-17T01:51:12.550Z,99.22
2022-08-17T01:53:48.937Z,99.15
2022-08-17T01:56:24.343Z,99.24
2022-08-17T01:58:57.196Z,99.16
2022-08-17T02:01:32.521Z,99.17
2022-08-17T02:04:05.303Z,99.36
2022-08-17T02:06:53.553Z,99.54
2022-08-17T02:09:29.875Z,99.50
2022-08-17T02:12:37.376Z,99.55
2022-08-17T02:14:56.051Z,99.43
2022-08-17T02:17:27.921Z,99.39
2022-08-17T02:19:59.755Z,99.40
2022-08-17T02:22:31.727Z,99.43
2022-08-17T02:25:05.557Z,99.34
2022-08-17T02:27:37.749Z,99.27
2022-08-17T02:31:02.049Z,99.20
2022-08-17T02:33:09.207Z,99.36
2022-08-17T02:35:42.082Z,99.43
2022-08-17T02:38:14.289Z,99.43
2022-08-17T02:40:47.683Z,99.46
2022-08-17T02:43:19.526Z,99.25
2022-08-17T02:45:51.695Z,99.34
2022-08-17T02:48:30.685Z,99.35
2022-08-17T02:51:03.971Z,99.50
2022-08-17T02:53:36.606Z,99.59
2022-08-17T02:56:08.886Z,99.69
2022-08-17T02:58:40.894Z,99.72
2022-08-17T03:01:13.435Z,99.71
2022-08-17T03:03:45.273Z,99.65
2022-08-17T03:06:17.100Z,99.60
2022-08-17T03:08:48.964Z,99.68
2022-08-17T03:11:21.010Z,99.88
2022-08-17T03:13:52.876Z,100.00
2022-08-17T03:16:24.720Z,99.98
2022-08-17T03:18:56.786Z,99.85
2022-08-17T03:21:28.698Z,99.95
2022-08-17T03:24:00.801Z,99.98
2022-08-17T03:26:38.841Z,99.94
2022-08-17T03:29:10.829Z,100.00
2022-08-17T03:31:42.747Z,100.00
2022-08-17T03:34:15.302Z,99.99
2022-08-17T03:36:47.146Z,100.00
2022-08-17T03:39:19.003Z,100.00
2022-08-17T03:41:50.813Z,99.99
2022-08-17T03:44:22.612Z,99.94
2022-08-17T03:47:12.426Z,99.98
2022-08-17T03:50:03.967Z,99.98
2022-08-17T03:52:55.855Z,100.00
2022-08-17T04:13:02.437Z,99.24
2022-08-17T04:15:34.691Z,99.07
2022-08-17T04:18:07.750Z,98.96
2022-08-17T04:20:43.346Z,99.07
2022-08-17T04:23:17.119Z,99.23
2022-08-17T04:25:51.628Z,99.45
2022-08-17T04:28:23.832Z,99.47
2022-08-17T04:30:55.873Z,99.40
2022-08-17T04:33:31.045Z,99.45
2022-08-17T04:36:07.844Z,99.58
2022-08-17T04:38:44.132Z,99.67
2022-08-17T04:41:34.910Z,99.91
2022-08-17T04:44:08.877Z,99.99
2022-08-17T04:46:41.252Z,100.00
2022-08-17T04:49:14.256Z,99.96
2022-08-17T04:51:55.660Z,100.00
2022-08-17T04:54:29.015Z,100.00
2022-08-17T04:57:00.850Z,100.00
2022-08-17T04:59:32.831Z,100.00
2022-08-17T05:02:04.718Z,100.00
2022-08-17T05:04:36.568Z,100.00
2022-08-17T05:07:08.631Z,100.00
2022-08-17T05:09:40.477Z,100.00
2022-08-17T05:12:12.279Z,100.00
2022-08-17T05:14:44.130Z,100.00
2022-08-17T05:17:16.266Z,100.00
2022-08-17T05:19:52.003Z,100.00
2022-08-17T05:22:26.567Z,100.00
2022-08-17T05:24:58.622Z,100.00
2022-08-17T05:27:35.501Z,100.00
2022-08-17T05:30:09.657Z,100.00
2022-08-17T05:32:41.525Z,100.00
2022-08-17T05:35:15.758Z,100.00
2022-08-17T05:37:50.924Z,100.00
2022-08-17T05:41:17.112Z,100.00
2022-08-17T05:43:53.002Z,100.00
2022-08-17T05:46:31.634Z,100.00
2022-08-17T05:49:08.425Z,100.00
2022-08-17T05:52:19.861Z,100.00
2022-08-17T05:55:06.109Z,100.00
2022-08-17T05:57:53.712Z,100.00
2022-08-17T06:00:30.738Z,100.00
2022-08-17T06:03:27.052Z,100.00
2022-08-17T06:06:08.560Z,100.00
2022-08-17T06:08:52.014Z,100.00
2022-08-17T06:11:31.182Z,100.00
2022-08-17T06:14:17.377Z,100.00
2022-08-17T06:16:56.146Z,100.00
2022-08-17T06:19:34.605Z,100.00
2022-08-17T06:22:09.699Z,100.00
2022-08-17T06:24:47.682Z,100.00
2022-08-17T06:27:25.508Z,100.00
2022-08-17T06:30:05.528Z,100.00
2022-08-17T06:32:39.112Z,100.00
2022-08-17T06:35:15.738Z,100.00
2022-08-17T06:37:59.413Z,100.00
2022-08-17T06:41:00.134Z,100.00
2022-08-17T06:43:48.187Z,100.00
2022-08-17T06:46:26.134Z,100.00
2022-08-17T06:49:12.367Z,100.00
2022-08-17T06:51:50.640Z,100.00
2022-08-17T06:54:35.096Z,100.00
2022-08-17T07:00:40.797Z,100.00
2022-08-17T07:03:21.013Z,100.00
2022-08-17T07:05:55.989Z,100.00
2022-08-17T07:08:35.424Z,100.00
2022-08-17T07:11:13.134Z,100.00
2022-08-17T07:13:52.057Z,100.00
2022-08-17T07:16:29.178Z,100.00
2022-08-17T07:19:01.253Z,100.00
2022-08-17T07:21:46.131Z,100.00
2022-08-17T07:24:31.032Z,100.00
2022-08-17T07:27:16.514Z,100.00
2022-08-17T07:29:52.054Z,100.00
2022-08-17T07:32:27.393Z,100.00
2022-08-17T07:35:15.404Z,100.00
2022-08-17T07:37:53.225Z,100.00
2022-08-17T07:40:33.484Z,100.00
2022-08-17T07:43:13.057Z,100.00
2022-08-17T07:46:16.866Z,100.00
2022-08-17T07:48:50.855Z,100.00
2022-08-17T07:51:31.856Z,100.00
2022-08-17T07:54:22.708Z,100.00
2022-08-17T07:56:57.669Z,100.00
2022-08-17T07:59:33.832Z,99.98
2022-08-17T08:02:31.677Z,99.75
2022-08-17T08:05:30.828Z,98.47
2022-08-17T08:08:23.677Z,97.25
2022-08-17T08:11:06.371Z,96.73
2022-08-17T08:13:42.779Z,96.41
2022-08-17T08:16:30.209Z,95.92
2022-08-17T08:19:03.400Z,94.97
2022-08-17T08:21:47.773Z,95.09
2022-08-17T08:24:37.525Z,94.73
2022-08-17T08:27:19.852Z,94.49
2022-08-17T08:29:58.391Z,94.06
2022-08-17T08:32:57.229Z,93.98
2022-08-17T08:35:34.605Z,92.45
2022-08-17T08:38:15.803Z,92.07
2022-08-17T08:41:03.468Z,91.28
2022-08-17T08:43:50.791Z,90.27
2022-08-17T08:46:35.456Z,90.39
2022-08-17T08:49:59.557Z,90.41
2022-08-17T08:52:39.600Z,89.64
2022-08-17T08:55:19.371Z,89.87
2022-08-17T08:57:57.967Z,88.37
2022-08-17T09:00:35.923Z,88.47
2022-08-17T09:03:31.562Z,87.62
2022-08-17T09:06:37.359Z,87.01
2022-08-17T09:09:26.638Z,86.74
2022-08-17T09:12:05.509Z,85.40
2022-08-17T09:14:45.152Z,85.72
2022-08-17T09:17:23.072Z,85.61
2022-08-17T09:20:00.409Z,85.27
2022-08-17T09:22:37.518Z,85.25
2022-08-17T09:25:14.788Z,84.30
2022-08-17T09:27:57.520Z,83.38
2022-08-17T09:30:42.605Z,81.69
2022-08-17T09:33:18.397Z,81.65
2022-08-17T09:35:54.886Z,80.08
2022-08-17T09:38:33.138Z,79.42
2022-08-17T09:41:14.956Z,79.82
2022-08-17T09:43:54.635Z,79.34
2022-08-17T09:46:30.778Z,79.13
2022-08-17T09:49:09.799Z,79.38
2022-08-17T09:51:48.748Z,79.01
2022-08-17T09:54:42.773Z,77.18
2022-08-17T09:57:31.064Z,77.34
2022-08-17T10:00:17.185Z,76.61
2022-08-17T10:03:18.051Z,75.12
2022-08-17T10:06:09.055Z,75.07
2022-08-17T10:08:52.691Z,74.44
2022-08-17T10:11:50.262Z,74.11
2022-08-17T10:14:43.830Z,73.95
2022-08-17T10:17:26.278Z,73.01
2022-08-17T10:20:07.051Z,72.94
2022-08-17T10:23:04.988Z,73.03
2022-08-17T10:26:01.527Z,71.84
2022-08-17T10:28:40.523Z,71.48
2022-08-17T10:31:39.479Z,71.61
2022-08-17T10:34:49.148Z,70.23
2022-08-17T10:37:48.176Z,69.97
2022-08-17T10:40:32.591Z,69.40
2022-08-17T10:43:20.258Z,69.22
2022-08-17T10:46:10.308Z,67.97
2022-08-17T10:49:25.779Z,67.77
2022-08-17T10:51:58.954Z,66.17
2022-08-17T10:55:06.516Z,66.93
2022-08-17T10:57:42.501Z,66.68
2022-08-17T11:00:37.525Z,66.17
2022-08-17T11:03:21.148Z,65.36
2022-08-17T11:06:01.118Z,64.52
2022-08-17T11:09:10.420Z,65.99
2022-08-17T11:12:07.352Z,66.02
2022-08-17T11:14:53.898Z,65.89
2022-08-17T11:17:42.927Z,66.21
2022-08-17T11:20:32.889Z,65.50
2022-08-17T11:23:26.695Z,65.65
2022-08-17T11:26:04.117Z,64.40
2022-08-17T11:28:52.652Z,64.16
2022-08-17T11:31:32.440Z,63.81
2022-08-17T11:34:26.651Z,64.49
2022-08-17T11:37:22.581Z,63.25
2022-08-17T11:40:35.594Z,63.64
2022-08-17T11:43:25.349Z,63.65
2022-08-17T11:46:17.130Z,63.30
2022-08-17T11:49:24.406Z,63.30
2022-08-17T11:52:36.565Z,62.32
2022-08-17T11:55:34.422Z,62.66
2022-08-17T11:58:37.518Z,63.01
2022-08-17T12:01:13.534Z,61.40
2022-08-17T12:03:55.551Z,62.03
2022-08-17T12:06:49.579Z,62.02
2022-08-17T12:09:25.091Z,62.36
2022-08-17T12:12:13.287Z,61.33
2022-08-17T12:17:52.354Z,62.03
2022-08-17T12:20:31.035Z,61.29
2022-08-17T12:23:10.822Z,61.31
2022-08-17T12:25:49.431Z,61.31
2022-08-17T12:28:27.589Z,60.56
2022-08-17T12:31:03.457Z,61.02
2022-08-17T12:33:37.473Z,60.57
2022-08-17T12:36:15.320Z,59.51
2022-08-17T12:38:57.308Z,59.02
2022-08-17T12:41:36.371Z,58.37
2022-08-17T12:44:14.253Z,58.48
2022-08-17T12:47:24.064Z,57.36
2022-08-17T12:50:05.878Z,56.69
2022-08-17T12:52:44.227Z,56.46
2022-08-17T12:55:36.815Z,57.59
2022-08-17T12:58:14.518Z,56.99
2022-08-17T13:00:56.664Z,56.79
2022-08-17T13:03:37.387Z,56.26
2022-08-17T13:06:36.064Z,53.55
2022-08-17T13:09:16.344Z,53.76
2022-08-17T13:11:55.225Z,54.35
2022-08-17T13:14:27.404Z,54.33
2022-08-17T13:17:04.388Z,53.62
2022-08-17T13:19:48.970Z,54.75
2022-08-17T13:22:26.431Z,55.38
2022-08-17T13:25:03.629Z,53.82
2022-08-17T13:27:36.123Z,54.30
2022-08-17T13:30:12.967Z,54.21
2022-08-17T13:32:47.365Z,54.60
2022-08-17T13:35:49.958Z,54.55
2022-08-17T13:38:45.804Z,54.33
2022-08-17T13:41:35.919Z,53.52
2022-08-17T13:44:34.647Z,53.73
2022-08-17T13:47:17.225Z,54.14
2022-08-17T13:49:54.286Z,54.17
2022-08-17T13:52:40.845Z,54.27
2022-08-17T13:55:21.420Z,54.39
2022-08-17T13:58:03.662Z,54.36
2022-08-17T14:00:40.483Z,53.59
2022-08-17T14:03:12.325Z,54.56
2022-08-17T14:05:45.997Z,54.69
2022-08-17T14:08:19.916Z,54.24
2022-08-17T14:10:58.453Z,54.55
2022-08-17T14:13:30.319Z,53.93
2022-08-17T14:16:02.235Z,54.13
2022-08-17T14:18:55.559Z,52.70
2022-08-17T14:21:26.039Z,52.63
2022-08-17T14:23:59.027Z,51.23
2022-08-17T14:26:31.450Z,51.92
2022-08-17T14:29:03.340Z,51.45
2022-08-17T14:31:53.327Z,52.51
2022-08-17T14:34:27.001Z,52.71
2022-08-17T14:36:59.041Z,53.36
2022-08-17T14:39:30.932Z,52.21
2022-08-17T14:42:03.101Z,52.45
2022-08-17T14:44:35.198Z,52.97
2022-08-17T14:47:13.914Z,52.44
2022-08-17T14:49:47.602Z,53.12
2022-08-17T14:52:22.018Z,53.27
2022-08-17T14:54:55.104Z,53.47
2022-08-17T14:57:34.038Z,53.51
2022-08-17T15:00:09.389Z,52.69
2022-08-17T15:02:49.286Z,53.42
2022-08-17T15:05:21.844Z,52.99
2022-08-17T15:07:56.443Z,53.14
2022-08-17T15:10:29.388Z,52.86
2022-08-17T15:13:01.625Z,52.91
2022-08-17T15:15:34.206Z,53.62
2022-08-17T15:18:06.075Z,52.75
2022-08-17T15:20:38.829Z,52.58
2022-08-17T15:23:12.926Z,53.48
2022-08-17T15:25:46.013Z,53.86
2022-08-17T15:28:18.552Z,53.06
2022-08-17T15:30:51.020Z,53.53
2022-08-17T15:33:30.410Z,53.34
2022-08-17T15:36:06.560Z,53.34
2022-08-17T15:38:40.370Z,52.45
2022-08-17T15:41:15.371Z,52.59
2022-08-17T15:43:48.681Z,52.52
2022-08-17T15:46:23.356Z,52.65
2022-08-17T15:48:59.091Z,53.08
2022-08-17T15:51:33.961Z,52.78
2022-08-17T15:54:19.249Z,53.00
2022-08-17T15:56:55.258Z,53.22
2022-08-17T15:59:31.061Z,53.04
2022-08-17T16:03:13.014Z,53.12
2022-08-17T16:04:57.315Z,53.34
2022-08-17T16:07:30.464Z,53.11
2022-08-17T16:10:02.421Z,52.66
2022-08-17T16:12:34.756Z,52.84
2022-08-17T16:15:08.674Z,52.95
2022-08-17T16:17:41.571Z,52.98
2022-08-17T16:20:19.904Z,52.98
2022-08-17T16:22:53.140Z,52.20
2022-08-17T16:25:40.298Z,52.27
2022-08-17T16:28:21.911Z,51.63
2022-08-17T16:30:53.740Z,52.43
2022-08-17T16:33:25.551Z,52.00
2022-08-17T16:35:57.412Z,52.37
2022-08-17T16:38:29.358Z,52.89
2022-08-17T16:41:01.625Z,54.51
2022-08-17T16:43:34.093Z,55.45
2022-08-17T16:46:06.314Z,56.21
2022-08-17T16:48:39.325Z,56.85
2022-08-17T16:51:11.105Z,57.06
2022-08-17T16:53:44.293Z,57.45
2022-08-17T16:56:19.340Z,57.73
2022-08-17T16:58:52.571Z,57.79
2022-08-17T17:01:25.044Z,57.87
2022-08-17T17:03:59.808Z,58.13
2022-08-17T17:06:45.158Z,58.09
2022-08-17T17:09:22.456Z,58.17
2022-08-17T17:12:00.816Z,58.58
2022-08-17T17:14:36.871Z,58.94
2022-08-17T17:17:22.040Z,59.28
2022-08-17T17:20:00.766Z,59.47
2022-08-17T17:22:39.102Z,59.84
2022-08-17T17:25:20.483Z,60.27
2022-08-17T17:28:00.909Z,60.37
2022-08-17T17:30:40.036Z,60.73
2022-08-17T17:33:17.603Z,61.21
2022-08-17T17:35:55.059Z,61.38
2022-08-17T17:38:32.526Z,61.33
2022-08-17T17:41:07.939Z,61.73
2022-08-17T17:43:41.074Z,61.80
2022-08-17T17:46:27.997Z,61.82
2022-08-17T17:49:01.496Z,62.22
2022-08-17T17:52:06.332Z,62.31
2022-08-17T17:54:48.227Z,62.44
2022-08-17T17:57:31.024Z,63.00
2022-08-17T18:00:08.782Z,63.02
2022-08-17T18:03:11.131Z,63.34
2022-08-17T18:06:03.314Z,63.77
2022-08-17T18:08:49.685Z,63.72
2022-08-17T18:11:53.980Z,63.97
2022-08-17T18:14:46.864Z,64.27
2022-08-17T18:17:20.421Z,64.39
2022-08-17T18:19:54.261Z,64.57
2022-08-17T18:22:27.834Z,64.62
2022-08-17T18:24:59.851Z,65.09
2022-08-17T18:27:37.925Z,65.38
2022-08-17T18:30:28.999Z,65.52
2022-08-17T18:33:23.277Z,65.58
2022-08-17T18:35:59.327Z,65.79
2022-08-17T18:38:35.287Z,66.19
2022-08-17T18:41:20.343Z,66.26
2022-08-17T18:44:07.565Z,66.85
2022-08-17T18:46:40.943Z,66.79
2022-08-17T18:49:33.144Z,67.92
2022-08-17T18:52:15.984Z,68.12
2022-08-17T18:55:08.681Z,68.83
2022-08-17T18:57:44.215Z,68.89
2022-08-17T19:00:31.340Z,68.90
2022-08-17T19:03:07.135Z,68.84
2022-08-17T19:05:47.244Z,68.93
2022-08-17T19:08:22.978Z,69.22
2022-08-17T19:10:59.734Z,69.39
2022-08-17T19:13:36.539Z,69.39
2022-08-17T19:16:16.029Z,69.94
2022-08-17T19:18:52.249Z,70.11
2022-08-17T19:21:28.329Z,70.64
2022-08-17T19:24:06.638Z,70.50
2022-08-17T19:26:50.755Z,70.46
2022-08-17T19:29:32.209Z,70.80
2022-08-17T19:32:10.077Z,71.18
2022-08-17T19:34:44.768Z,71.38
2022-08-17T19:37:30.991Z,71.98
2022-08-17T19:40:29.253Z,71.87
2022-08-17T19:43:17.828Z,72.12
2022-08-17T19:45:59.517Z,72.38
2022-08-17T19:48:53.162Z,72.64
2022-08-17T19:51:31.650Z,72.65
2022-08-17T19:54:09.716Z,72.64
2022-08-17T19:56:48.857Z,72.94
2022-08-17T19:59:35.612Z,73.04
2022-08-17T20:02:42.582Z,73.12
2022-08-17T20:05:18.643Z,73.22
2022-08-17T20:07:55.396Z,73.87
2022-08-17T20:10:36.802Z,74.55
2022-08-17T20:13:16.240Z,74.80
2022-08-17T20:15:49.730Z,75.61
2022-08-17T20:18:30.443Z,76.00
2022-08-17T20:21:07.566Z,76.21
2022-08-17T20:24:00.944Z,75.88
2022-08-17T20:26:58.438Z,75.90
2022-08-17T20:29:40.375Z,76.01
2022-08-17T20:32:27.851Z,75.96
2022-08-17T20:35:22.451Z,75.81
2022-08-17T20:37:59.079Z,75.76
2022-08-17T20:40:35.348Z,75.96
2022-08-17T20:43:39.987Z,76.40
2022-08-17T20:46:26.861Z,76.37
2022-08-17T20:49:15.704Z,76.34
2022-08-17T20:52:02.391Z,77.00
2022-08-17T20:54:53.653Z,77.11
2022-08-17T20:57:49.434Z,77.23
2022-08-17T21:00:42.769Z,77.32
2022-08-17T21:03:50.801Z,76.95
2022-08-17T21:06:27.450Z,77.42
2022-08-17T21:09:20.921Z,77.77
2022-08-17T21:12:04.012Z,77.81
2022-08-17T21:15:02.866Z,77.40
2022-08-17T21:17:49.951Z,77.64
2022-08-17T21:20:39.637Z,78.20
2022-08-17T21:23:43.190Z,78.01
2022-08-17T21:26:30.671Z,77.97
2022-08-17T21:29:32.045Z,78.27
2022-08-17T21:32:24.185Z,78.85
2022-08-17T21:35:25.133Z,79.07
2022-08-17T21:38:03.634Z,78.94
2022-08-17T21:40:36.346Z,78.66
2022-08-17T21:43:28.213Z,78.64
2022-08-17T21:46:08.320Z,78.69
2022-08-17T21:48:48.223Z,78.67
2022-08-17T21:51:24.289Z,78.43
2022-08-17T21:54:00.819Z,78.55
2022-08-17T22:00:31.109Z,79.21
2022-08-17T22:03:05.267Z,79.12
2022-08-17T22:05:40.187Z,79.48
2022-08-17T22:08:19.773Z,79.66
2022-08-17T22:11:00.463Z,79.49
2022-08-17T22:13:32.626Z,79.59
2022-08-17T22:16:29.049Z,79.82
2022-08-17T22:19:02.037Z,79.91
2022-08-17T22:21:33.890Z,79.89
2022-08-17T22:24:18.094Z,79.66
2022-08-17T22:27:07.956Z,79.83
2022-08-17T22:29:57.185Z,79.93
2022-08-17T22:32:41.892Z,79.99
2022-08-17T22:35:34.446Z,80.38
2022-08-17T22:38:31.582Z,80.69
2022-08-17T22:41:30.247Z,80.71
2022-08-17T22:44:10.238Z,80.96
2022-08-17T22:46:50.792Z,81.05
2022-08-17T22:49:29.299Z,80.89
2022-08-17T22:52:08.850Z,80.89
2022-08-17T22:54:58.678Z,81.16
2022-08-17T22:57:48.636Z,81.67
2022-08-17T23:00:37.361Z,81.98
2022-08-17T23:03:13.443Z,81.90
2022-08-17T23:05:49.034Z,82.06
2022-08-17T23:08:21.540Z,82.30
2022-08-17T23:10:53.342Z,82.25
2022-08-17T23:13:25.186Z,82.50
2022-08-17T23:15:57.244Z,82.25
2022-08-17T23:18:29.091Z,82.46
2022-08-17T23:21:02.077Z,82.48
2022-08-17T23:23:37.275Z,82.87
2022-08-17T23:26:11.363Z,83.24
2022-08-17T23:28:43.941Z,83.62
2022-08-17T23:31:25.684Z,83.55
2022-08-17T23:33:59.292Z,83.44
2022-08-17T23:36:31.780Z,83.15
2022-08-17T23:39:06.657Z,83.31
2022-08-17T23:41:40.151Z,83.13
2022-08-17T23:44:13.229Z,82.83
2022-08-17T23:46:45.425Z,83.03
2022-08-17T23:49:17.230Z,83.06
2022-08-17T23:51:50.507Z,83.27
2022-08-17T23:54:25.414Z,83.06
